Time;durP1;ratioP1;P1;durP2;ratioP2;P2;SDS_P1;SDS_P2;PMS_P1;PMS_P2;Temp;Humidity;BMP_temperature;BMP_pressure;BME280_temperature;BME280_humidity;BME280_pressure;Samples;Min_cycle;Max_cycle;Signal;HPM_P1;HPM_P2
2022/08/25 00:00:28;;;;;;;5.43;4.07;;;;;;;;;;5053027;28;20033;-56
2022/08/25 00:02:54;;;;;;;7.65;3.92;;;;;;;;;;5062606;28;20067;-55
2022/08/25 00:05:20;;;;;;;5.70;4.30;;;;;;;;;;5072792;28;20032;-55
2022/08/25 00:07:45;;;;;;;6.63;4.10;;;;;;;;;;5054473;28;20029;-55
2022/08/25 00:10:10;;;;;;;7.70;4.00;;;;;;;;;;5052989;28;20031;-56
2022/08/25 00:12:36;;;;;;;6.50;4.00;;;;;;;;;;5052284;28;20075;-55
2022/08/25 00:15:02;;;;;;;9.13;3.90;;;;;;;;;;5052590;28;20021;-55
2022/08/25 00:17:27;;;;;;;7.03;4.07;;;;;;;;;;5052639;28;20029;-56
2022/08/25 00:19:53;;;;;;;5.53;4.10;;;;;;;;;;5052978;28;20147;-55
2022/08/25 00:22:18;;;;;;;6.25;3.92;;;;;;;;;;5058804;28;20078;-55
2022/08/25 00:24:43;;;;;;;11.90;3.88;;;;;;;;;;5060305;28;20036;-55
2022/08/25 00:27:11;;;;;;;6.32;3.80;;;;;;;;;;5068443;28;20025;-55
2022/08/25 00:30:23;;;;;;;7.47;4.28;;;;;;;;;;5055636;28;20108;-56
2022/08/25 00:32:49;;;;;;;8.25;4.28;;;;;;;;;;5052539;28;20031;-56
2022/08/25 00:35:15;;;;;;;7.00;4.30;;;;;;;;;;5054047;28;20100;-55
2022/08/25 00:37:40;;;;;;;6.57;3.70;;;;;;;;;;5067092;28;20450;-55
2022/08/25 00:40:06;;;;;;;6.28;3.67;;;;;;;;;;5061158;28;20013;-55
2022/08/25 00:42:32;;;;;;;6.25;4.10;;;;;;;;;;5071484;28;20111;-55
2022/08/25 00:44:57;;;;;;;6.68;4.60;;;;;;;;;;5071270;28;20103;-55
2022/08/25 00:47:24;;;;;;;6.50;3.97;;;;;;;;;;5067676;28;20029;-56
2022/08/25 00:49:58;;;;;;;8.40;4.43;;;;;;;;;;5059859;28;20032;-56
2022/08/25 00:52:51;;;;;;;6.75;4.35;;;;;;;;;;5056847;28;20028;-55
2022/08/25 00:55:25;;;;;;;5.70;3.92;;;;;;;;;;5052421;28;20044;-55
2022/08/25 00:58:15;;;;;;;8.38;4.63;;;;;;;;;;5051437;28;20487;-55
2022/08/25 01:00:45;;;;;;;7.97;4.60;;;;;;;;;;5068131;28;20037;-56
2022/08/25 01:03:12;;;;;;;5.03;4.00;;;;;;;;;;5066235;28;20029;-55
2022/08/25 01:05:39;;;;;;;6.50;4.50;;;;;;;;;;5052165;28;20028;-55
2022/08/25 01:08:07;;;;;;;5.15;3.97;;;;;;;;;;5050331;28;20024;-56
2022/08/25 01:10:35;;;;;;;5.88;4.30;;;;;;;;;;5052209;28;20032;-55
2022/08/25 01:13:07;;;;;;;7.97;4.72;;;;;;;;;;5070571;28;20089;-56
2022/08/25 01:15:33;;;;;;;7.28;4.30;;;;;;;;;;5071832;28;20036;-54
2022/08/25 01:17:59;;;;;;;6.22;4.18;;;;;;;;;;5058433;28;20106;-55
2022/08/25 01:20:28;;;;;;;5.80;4.18;;;;;;;;;;5052957;28;20029;-55
2022/08/25 01:22:55;;;;;;;5.43;4.00;;;;;;;;;;5065437;28;20055;-56
2022/08/25 01:25:57;;;;;;;6.55;4.43;;;;;;;;;;5060558;28;20270;-55
2022/08/25 01:28:23;;;;;;;9.57;4.35;;;;;;;;;;5053087;28;20386;-55
2022/08/25 01:30:49;;;;;;;5.93;3.92;;;;;;;;;;5051472;28;20021;-55
2022/08/25 01:33:17;;;;;;;6.70;4.05;;;;;;;;;;5059693;28;20025;-55
2022/08/25 01:35:43;;;;;;;6.03;4.20;;;;;;;;;;5071512;28;20028;-55
2022/08/25 01:38:09;;;;;;;7.43;4.50;;;;;;;;;;5053903;28;20025;-55
2022/08/25 01:40:36;;;;;;;6.43;4.07;;;;;;;;;;5056536;28;20379;-55
2022/08/25 01:43:09;;;;;;;7.20;4.40;;;;;;;;;;5061386;28;20082;-55
2022/08/25 01:45:36;;;;;;;6.40;4.50;;;;;;;;;;5071243;28;20490;-56
2022/08/25 01:48:02;;;;;;;6.32;4.53;;;;;;;;;;5069586;28;20036;-56
2022/08/25 01:50:28;;;;;;;8.25;4.75;;;;;;;;;;5056914;28;20093;-56
2022/08/25 01:53:06;;;;;;;9.68;4.60;;;;;;;;;;5068983;28;20521;-56
2022/08/25 01:55:50;;;;;;;6.88;4.45;;;;;;;;;;5056091;28;20029;-56
2022/08/25 01:58:30;;;;;;;7.78;4.45;;;;;;;;;;5056022;28;20033;-55
2022/08/25 02:00:58;;;;;;;6.95;4.38;;;;;;;;;;5060420;28;20031;-56
2022/08/25 02:03:57;;;;;;;6.70;4.40;;;;;;;;;;5065496;28;20020;-56
2022/08/25 02:06:31;;;;;;;5.13;3.67;;;;;;;;;;5072537;28;20458;-56
2022/08/25 02:09:04;;;;;;;6.57;4.22;;;;;;;;;;5070941;28;20020;-56
2022/08/25 02:11:31;;;;;;;5.90;4.40;;;;;;;;;;5068526;28;20591;-56
2022/08/25 02:13:58;;;;;;;5.85;4.40;;;;;;;;;;5055101;28;20052;-56
2022/08/25 02:16:27;;;;;;;7.82;4.38;;;;;;;;;;5072348;28;20099;-56
2022/08/25 02:18:53;;;;;;;5.93;4.28;;;;;;;;;;5062025;28;20389;-56
2022/08/25 02:21:18;;;;;;;6.10;4.30;;;;;;;;;;5054475;28;20033;-56
2022/08/25 02:23:44;;;;;;;6.28;4.22;;;;;;;;;;5059010;28;20490;-55
2022/08/25 02:26:10;;;;;;;8.30;4.68;;;;;;;;;;5066962;28;20124;-56
2022/08/25 02:28:36;;;;;;;7.75;4.80;;;;;;;;;;5065917;28;20031;-56
2022/08/25 02:31:03;;;;;;;6.00;4.50;;;;;;;;;;5074582;28;20025;-56
2022/08/25 02:33:29;;;;;;;6.97;4.40;;;;;;;;;;5073717;28;20024;-55
2022/08/25 02:35:57;;;;;;;7.03;4.72;;;;;;;;;;5067271;28;20506;-56
2022/08/25 02:38:22;;;;;;;7.88;4.40;;;;;;;;;;5054487;28;20404;-56
2022/08/25 02:40:49;;;;;;;5.55;4.50;;;;;;;;;;5054466;28;20027;-56
2022/08/25 02:43:14;;;;;;;6.20;4.15;;;;;;;;;;5055965;28;20051;-55
2022/08/25 02:45:40;;;;;;;5.57;4.20;;;;;;;;;;5074509;28;20029;-55
2022/08/25 02:48:05;;;;;;;7.40;4.22;;;;;;;;;;5063879;28;20497;-56
2022/08/25 02:50:31;;;;;;;6.30;4.53;;;;;;;;;;5054244;28;20024;-56
2022/08/25 02:52:56;;;;;;;6.93;4.43;;;;;;;;;;5053348;28;20405;-56
2022/08/25 02:55:22;;;;;;;9.32;4.68;;;;;;;;;;5059868;28;20030;-56
2022/08/25 02:57:48;;;;;;;6.35;4.30;;;;;;;;;;5073879;28;20478;-56
2022/08/25 03:00:15;;;;;;;7.25;4.97;;;;;;;;;;5074080;28;20032;-55
2022/08/25 03:02:42;;;;;;;7.10;4.47;;;;;;;;;;5055046;28;20305;-56
2022/08/25 03:05:10;;;;;;;7.50;4.30;;;;;;;;;;5058763;28;20706;-56
2022/08/25 03:07:37;;;;;;;7.45;4.70;;;;;;;;;;5074005;28;20025;-56
2022/08/25 03:10:15;;;;;;;6.22;4.72;;;;;;;;;;5060891;28;20025;-56
2022/08/25 03:12:41;;;;;;;6.43;5.15;;;;;;;;;;5055340;28;20025;-56
2022/08/25 03:15:10;;;;;;;7.07;5.00;;;;;;;;;;5073341;28;20538;-55
2022/08/25 03:17:36;;;;;;;6.95;4.78;;;;;;;;;;5073889;28;20025;-56
2022/08/25 03:20:04;;;;;;;8.90;4.78;;;;;;;;;;5059488;28;20020;-56
2022/08/25 03:22:30;;;;;;;7.90;5.30;;;;;;;;;;5069285;28;20036;-56
2022/08/25 03:26:52;;;;;;;6.68;4.93;;;;;;;;;;5053790;28;20413;-56
2022/08/25 03:27:40;;;;;;;6.90;4.80;;;;;;;;;;5064661;28;20028;-56
2022/08/25 03:30:06;;;;;;;9.20;4.90;;;;;;;;;;5056849;28;20032;-56
2022/08/25 03:32:32;;;;;;;7.20;4.88;;;;;;;;;;5052801;28;20025;-56
2022/08/25 03:35:00;;;;;;;9.77;5.18;;;;;;;;;;5061079;28;20052;-56
2022/08/25 03:37:25;;;;;;;9.13;4.97;;;;;;;;;;5073517;28;20401;-56
2022/08/25 03:39:51;;;;;;;6.30;4.55;;;;;;;;;;5073467;28;20050;-56
2022/08/25 03:42:16;;;;;;;6.40;5.00;;;;;;;;;;5053091;28;20031;-56
2022/08/25 03:44:42;;;;;;;6.95;4.72;;;;;;;;;;5067087;28;20508;-56
2022/08/25 03:47:07;;;;;;;8.75;5.22;;;;;;;;;;5062473;28;20028;-55
2022/08/25 03:49:33;;;;;;;7.85;4.97;;;;;;;;;;5067649;28;20028;-55
2022/08/25 03:51:58;;;;;;;8.30;5.10;;;;;;;;;;5072457;28;20074;-56
2022/08/25 03:54:24;;;;;;;9.38;5.57;;;;;;;;;;5073167;28;20028;-56
2022/08/25 03:56:51;;;;;;;8.00;5.65;;;;;;;;;;5063232;28;20055;-56
2022/08/25 03:59:16;;;;;;;9.40;6.38;;;;;;;;;;5052677;28;20043;-56
2022/08/25 04:01:43;;;;;;;8.40;5.57;;;;;;;;;;5052333;28;20124;-56
2022/08/25 04:04:11;;;;;;;8.50;5.57;;;;;;;;;;5053568;28;20108;-55
2022/08/25 04:06:42;;;;;;;7.70;5.40;;;;;;;;;;5072871;28;20028;-56
2022/08/25 04:09:08;;;;;;;8.00;5.70;;;;;;;;;;5058943;28;20036;-56
2022/08/25 04:11:34;;;;;;;7.65;5.60;;;;;;;;;;5068213;28;20036;-56
2022/08/25 04:14:01;;;;;;;8.23;5.45;;;;;;;;;;5054840;28;20036;-55
2022/08/25 04:16:32;;;;;;;8.15;5.80;;;;;;;;;;5053651;28;20087;-56
2022/08/25 04:19:01;;;;;;;10.43;5.82;;;;;;;;;;5052757;28;20040;-55
2022/08/25 04:21:27;;;;;;;10.48;6.43;;;;;;;;;;5069868;28;20082;-55
2022/08/25 04:23:55;;;;;;;9.85;6.43;;;;;;;;;;5072225;28;20020;-55
2022/08/25 04:26:23;;;;;;;9.15;6.63;;;;;;;;;;5072505;28;20508;-55
2022/08/25 04:28:49;;;;;;;11.10;6.40;;;;;;;;;;5072288;28;20036;-56
2022/08/25 04:31:16;;;;;;;10.27;6.68;;;;;;;;;;5054394;28;20033;-56
2022/08/25 04:33:42;;;;;;;9.07;6.50;;;;;;;;;;5057637;28;20056;-56
2022/08/25 04:36:10;;;;;;;10.52;7.15;;;;;;;;;;5062972;28;20069;-55
2022/08/25 04:38:36;;;;;;;19.30;9.68;;;;;;;;;;5065300;28;20026;-56
2022/08/25 04:41:04;;;;;;;14.90;8.48;;;;;;;;;;5072203;28;20024;-55
2022/08/25 04:43:30;;;;;;;12.52;7.28;;;;;;;;;;5070902;28;20034;-56
2022/08/25 04:45:57;;;;;;;10.80;6.50;;;;;;;;;;5063045;28;20024;-55
2022/08/25 04:48:22;;;;;;;9.48;6.50;;;;;;;;;;5065068;28;20032;-56
2022/08/25 04:50:48;;;;;;;10.25;6.47;;;;;;;;;;5071280;28;20081;-56
2022/08/25 04:53:15;;;;;;;11.25;6.97;;;;;;;;;;5055258;28;20021;-56
2022/08/25 04:55:45;;;;;;;9.57;6.53;;;;;;;;;;5063515;28;20054;-55
2022/08/25 04:58:11;;;;;;;9.93;6.85;;;;;;;;;;5064310;28;20031;-55
2022/08/25 05:00:37;;;;;;;10.18;6.90;;;;;;;;;;5055180;28;20083;-56
2022/08/25 05:03:04;;;;;;;10.55;7.35;;;;;;;;;;5055196;28;20035;-55
2022/08/25 05:05:30;;;;;;;11.52;7.40;;;;;;;;;;5071819;28;20035;-55
2022/08/25 05:07:57;;;;;;;11.15;7.10;;;;;;;;;;5071750;28;20028;-56
2022/08/25 05:10:23;;;;;;;11.43;6.88;;;;;;;;;;5055630;28;20041;-55
2022/08/25 05:12:48;;;;;;;11.25;6.75;;;;;;;;;;5070317;28;20708;-56
2022/08/25 05:17:58;;;;;;;12.40;7.65;;;;;;;;;;5051922;28;20074;-56
2022/08/25 05:20:25;;;;;;;11.35;7.22;;;;;;;;;;5051694;28;20585;-56
2022/08/25 05:22:51;;;;;;;12.57;7.43;;;;;;;;;;5056035;28;20425;-57
2022/08/25 05:25:16;;;;;;;11.63;7.00;;;;;;;;;;5071630;28;20034;-56
2022/08/25 05:27:42;;;;;;;11.73;7.25;;;;;;;;;;5071506;28;20078;-57
2022/08/25 05:30:10;;;;;;;12.38;7.63;;;;;;;;;;5054319;28;20082;-56
2022/08/25 05:32:35;;;;;;;12.15;7.05;;;;;;;;;;5055115;28;20120;-57
2022/08/25 05:35:01;;;;;;;10.68;7.22;;;;;;;;;;5071247;28;20040;-56
2022/08/25 05:37:26;;;;;;;13.10;7.70;;;;;;;;;;5071469;28;20028;-56
2022/08/25 05:39:51;;;;;;;11.30;6.55;;;;;;;;;;5071444;28;20478;-56
2022/08/25 05:42:17;;;;;;;13.07;7.75;;;;;;;;;;5070924;28;20468;-56
2022/08/25 05:44:42;;;;;;;10.77;7.32;;;;;;;;;;5063284;28;20048;-57
2022/08/25 05:47:08;;;;;;;13.95;7.35;;;;;;;;;;5051272;28;20475;-56
2022/08/25 05:49:33;;;;;;;13.23;7.90;;;;;;;;;;5051069;28;20041;-57
2022/08/25 05:51:58;;;;;;;11.30;7.68;;;;;;;;;;5068895;28;20443;-57
2022/08/25 05:54:24;;;;;;;11.95;7.63;;;;;;;;;;5060143;28;20486;-57
2022/08/25 05:56:50;;;;;;;10.43;6.93;;;;;;;;;;5065419;28;20021;-56
2022/08/25 05:59:15;;;;;;;12.77;8.15;;;;;;;;;;5068732;28;20020;-57
2022/08/25 06:04:25;;;;;;;12.40;8.40;;;;;;;;;;5075454;28;20059;-57
2022/08/25 06:06:52;;;;;;;10.50;7.38;;;;;;;;;;5063702;28;20060;-57
2022/08/25 06:09:18;;;;;;;12.30;8.27;;;;;;;;;;5070572;28;20021;-57
2022/08/25 06:11:43;;;;;;;13.50;8.65;;;;;;;;;;5074346;28;20020;-56
2022/08/25 06:14:09;;;;;;;14.30;8.98;;;;;;;;;;5074575;28;20024;-57
2022/08/25 06:16:35;;;;;;;14.27;9.48;;;;;;;;;;5074880;28;20020;-58
2022/08/25 06:19:00;;;;;;;12.25;8.40;;;;;;;;;;5074766;28;20035;-57
2022/08/25 06:21:26;;;;;;;14.63;8.60;;;;;;;;;;5057987;28;20025;-57
2022/08/25 06:23:51;;;;;;;15.55;9.82;;;;;;;;;;5069251;28;20029;-56
2022/08/25 06:26:17;;;;;;;13.13;8.70;;;;;;;;;;5064427;28;20086;-56
2022/08/25 06:28:42;;;;;;;14.38;8.48;;;;;;;;;;5061046;28;20104;-56
2022/08/25 06:31:08;;;;;;;13.73;8.80;;;;;;;;;;5070756;28;20020;-57
2022/08/25 06:33:33;;;;;;;14.90;9.15;;;;;;;;;;5061787;28;20025;-57
2022/08/25 06:35:59;;;;;;;14.15;9.27;;;;;;;;;;5074688;28;20058;-57
2022/08/25 06:38:26;;;;;;;16.20;8.50;;;;;;;;;;5062284;28;20025;-57
2022/08/25 06:40:51;;;;;;;15.98;9.23;;;;;;;;;;5054481;28;20025;-57
2022/08/25 06:43:18;;;;;;;13.70;8.25;;;;;;;;;;5072051;28;20044;-56
2022/08/25 06:45:44;;;;;;;12.00;7.90;;;;;;;;;;5066557;28;20036;-57
2022/08/25 06:48:09;;;;;;;15.57;8.48;;;;;;;;;;5054548;28;20021;-57
2022/08/25 06:50:38;;;;;;;15.48;8.77;;;;;;;;;;5054485;28;20021;-57
2022/08/25 06:53:04;;;;;;;19.93;10.53;;;;;;;;;;5072786;28;20023;-57
2022/08/25 06:55:29;;;;;;;15.10;8.43;;;;;;;;;;5074271;28;20270;-57
2022/08/25 06:57:55;;;;;;;14.05;8.35;;;;;;;;;;5061652;28;20421;-57
2022/08/25 07:00:21;;;;;;;12.30;8.20;;;;;;;;;;5068619;28;20024;-57
2022/08/25 07:02:47;;;;;;;12.55;8.13;;;;;;;;;;5054217;28;20482;-57
2022/08/25 07:05:12;;;;;;;16.17;8.85;;;;;;;;;;5060148;28;20042;-57
2022/08/25 07:07:38;;;;;;;18.23;11.32;;;;;;;;;;5064289;28;20031;-57
2022/08/25 07:10:04;;;;;;;19.27;11.80;;;;;;;;;;5053968;28;20036;-57
2022/08/25 07:12:30;;;;;;;19.02;11.77;;;;;;;;;;5053080;28;20017;-57
2022/08/25 07:14:55;;;;;;;19.95;11.32;;;;;;;;;;5052137;28;20393;-57
2022/08/25 07:17:22;;;;;;;18.00;10.02;;;;;;;;;;5053827;28;20538;-57
2022/08/25 07:19:48;;;;;;;18.35;10.65;;;;;;;;;;5066733;28;20025;-57
2022/08/25 07:22:13;;;;;;;17.10;10.43;;;;;;;;;;5073051;28;20035;-56
2022/08/25 07:24:39;;;;;;;13.68;9.25;;;;;;;;;;5073504;28;20074;-57
2022/08/25 07:27:05;;;;;;;14.90;8.85;;;;;;;;;;5073706;28;20030;-57
2022/08/25 07:29:32;;;;;;;14.50;9.20;;;;;;;;;;5061089;28;20022;-57
2022/08/25 07:32:02;;;;;;;15.43;9.13;;;;;;;;;;5069076;28;20432;-57
2022/08/25 07:37:11;;;;;;;14.70;9.60;;;;;;;;;;5063759;28;20090;-56
2022/08/25 07:39:37;;;;;;;15.60;10.13;;;;;;;;;;5067644;28;20020;-57
2022/08/25 07:42:03;;;;;;;14.52;8.88;;;;;;;;;;5072600;28;20131;-57
2022/08/25 07:44:29;;;;;;;15.38;9.65;;;;;;;;;;5067260;28;20088;-56
2022/08/25 07:46:55;;;;;;;16.83;9.73;;;;;;;;;;5053452;28;20025;-57
2022/08/25 07:49:22;;;;;;;16.02;9.38;;;;;;;;;;5053229;28;20028;-57
2022/08/25 07:51:48;;;;;;;13.32;9.15;;;;;;;;;;5069899;28;20028;-57
2022/08/25 07:54:13;;;;;;;14.48;8.57;;;;;;;;;;5068101;28;20029;-57
2022/08/25 07:56:41;;;;;;;16.20;9.25;;;;;;;;;;5061711;28;20028;-56
2022/08/25 07:59:08;;;;;;;14.38;8.90;;;;;;;;;;5072689;28;20572;-57
2022/08/25 08:01:33;;;;;;;16.70;8.70;;;;;;;;;;5071642;28;20053;-56
2022/08/25 08:03:59;;;;;;;13.27;8.68;;;;;;;;;;5052981;28;20033;-56
2022/08/25 08:06:24;;;;;;;12.73;8.13;;;;;;;;;;5053022;28;20131;-57
2022/08/25 08:08:52;;;;;;;15.05;8.73;;;;;;;;;;5064676;28;20030;-56
2022/08/25 08:11:18;;;;;;;12.88;8.25;;;;;;;;;;5072228;28;20035;-57
2022/08/25 08:13:46;;;;;;;13.80;8.60;;;;;;;;;;5054782;28;20025;-57
2022/08/25 08:16:13;;;;;;;12.52;8.35;;;;;;;;;;5052903;28;20021;-56
2022/08/25 08:18:41;;;;;;;13.35;8.75;;;;;;;;;;5052704;28;20033;-57
2022/08/25 08:21:12;;;;;;;14.20;8.77;;;;;;;;;;5052796;28;20017;-57
2022/08/25 08:23:38;;;;;;;15.18;8.13;;;;;;;;;;5051921;28;20072;-58
2022/08/25 08:26:04;;;;;;;14.90;8.73;;;;;;;;;;5052598;28;20110;-56
2022/08/25 08:28:30;;;;;;;14.13;8.90;;;;;;;;;;5063841;28;20028;-57
2022/08/25 08:30:55;;;;;;;13.02;8.10;;;;;;;;;;5055414;28;20025;-57
2022/08/25 08:33:22;;;;;;;13.88;8.15;;;;;;;;;;5051687;28;20025;-57
2022/08/25 08:35:55;;;;;;;12.38;8.13;;;;;;;;;;5052459;28;20079;-57
2022/08/25 08:38:20;;;;;;;12.88;7.80;;;;;;;;;;5062955;28;20116;-57
2022/08/25 08:43:44;;;;;;;12.68;8.23;;;;;;;;;;5057301;28;20040;-57
2022/08/25 08:46:09;;;;;;;11.48;8.02;;;;;;;;;;5060767;28;20496;-57
2022/08/25 08:49:05;;;;;;;11.20;7.88;;;;;;;;;;5051874;28;20115;-57
2022/08/25 08:51:38;;;;;;;12.93;8.18;;;;;;;;;;5051068;28;20041;-57
2022/08/25 08:54:12;;;;;;;18.83;9.05;;;;;;;;;;5079291;28;20024;-57
2022/08/25 08:56:42;;;;;;;11.68;7.68;;;;;;;;;;5072157;28;20028;-57
2022/08/25 08:59:18;;;;;;;12.77;7.57;;;;;;;;;;5071425;28;20102;-57
2022/08/25 09:01:46;;;;;;;9.95;6.28;;;;;;;;;;5070978;28;20032;-57
2022/08/25 09:04:26;;;;;;;9.85;6.93;;;;;;;;;;5063318;28;20028;-57
2022/08/25 09:06:52;;;;;;;7.72;5.70;;;;;;;;;;5052011;28;20029;-57
2022/08/25 09:09:31;;;;;;;8.20;6.38;;;;;;;;;;5051686;28;20027;-58
2022/08/25 09:11:56;;;;;;;;;;;;;;;;;;5064743;28;20177;-58
2022/08/25 09:14:43;;;;;;;8.30;5.43;;;;;;;;;;5054031;28;20330;-57
2022/08/25 09:17:34;;;;;;;8.82;6.05;;;;;;;;;;5059153;28;20036;-58
2022/08/25 09:20:24;;;;;;;9.35;5.40;;;;;;;;;;5071551;28;20044;-57
2022/08/25 09:23:01;;;;;;;9.10;5.80;;;;;;;;;;5070643;28;20111;-57
2022/08/25 09:25:47;;;;;;;8.07;5.57;;;;;;;;;;5070358;28;20032;-57
2022/08/25 09:28:20;;;;;;;6.22;5.00;;;;;;;;;;5070833;28;20086;-57
2022/08/25 09:31:03;;;;;;;9.52;5.82;;;;;;;;;;5064893;28;20017;-57
2022/08/25 09:33:32;;;;;;;10.15;5.88;;;;;;;;;;5063013;28;20025;-57
2022/08/25 09:35:58;;;;;;;10.27;5.32;;;;;;;;;;5054483;28;20039;-57
2022/08/25 09:38:25;;;;;;;9.00;5.75;;;;;;;;;;5051402;28;20100;-57
2022/08/25 09:40:54;;;;;;;8.23;5.50;;;;;;;;;;5059658;28;20028;-57
2022/08/25 09:43:30;;;;;;;10.10;6.10;;;;;;;;;;5060463;28;20054;-57
2022/08/25 09:46:08;;;;;;;6.32;5.43;;;;;;;;;;5069868;28;20079;-57
2022/08/25 09:48:47;;;;;;;7.18;5.75;;;;;;;;;;5051365;28;20040;-57
2022/08/25 09:51:31;;;;;;;7.60;5.65;;;;;;;;;;5050808;28;20029;-57
2022/08/25 09:54:04;;;;;;;7.18;5.47;;;;;;;;;;5070206;28;20474;-57
2022/08/25 09:56:32;;;;;;;9.82;6.15;;;;;;;;;;5071146;28;20112;-57
2022/08/25 09:59:19;;;;;;;10.90;5.68;;;;;;;;;;5069360;28;20024;-57
2022/08/25 10:01:51;;;;;;;8.27;5.18;;;;;;;;;;5054015;28;20135;-57
2022/08/25 10:04:35;;;;;;;8.45;4.90;;;;;;;;;;5064063;28;20074;-57
2022/08/25 10:07:04;;;;;;;6.82;5.20;;;;;;;;;;5051102;28;20036;-57
2022/08/25 10:09:37;;;;;;;10.57;5.13;;;;;;;;;;5051009;28;20021;-57
2022/08/25 10:12:16;;;;;;;8.73;5.70;;;;;;;;;;5050108;28;20060;-57
2022/08/25 10:14:41;;;;;;;7.95;5.70;;;;;;;;;;5050725;28;20033;-57
2022/08/25 10:17:23;;;;;;;5.97;4.93;;;;;;;;;;5051022;28;20070;-57
2022/08/25 10:19:53;;;;;;;6.43;4.80;;;;;;;;;;5056294;28;20031;-57
2022/08/25 10:22:33;;;;;;;5.50;5.00;;;;;;;;;;5060237;28;20473;-57
2022/08/25 10:24:59;;;;;;;6.03;4.45;;;;;;;;;;5066465;28;20020;-58
2022/08/25 10:27:51;;;;;;;6.95;4.47;;;;;;;;;;5070857;28;20036;-58
2022/08/25 10:30:26;;;;;;;8.00;4.95;;;;;;;;;;5069750;28;20431;-57
2022/08/25 10:32:55;;;;;;;5.70;4.55;;;;;;;;;;5069949;28;20425;-57
2022/08/25 10:35:31;;;;;;;8.30;4.55;;;;;;;;;;5051136;28;20083;-57
2022/08/25 10:38:11;;;;;;;7.15;4.60;;;;;;;;;;5061769;28;20032;-57
2022/08/25 10:40:59;;;;;;;6.07;4.28;;;;;;;;;;5059835;28;20021;-57
2022/08/25 10:43:33;;;;;;;5.90;3.88;;;;;;;;;;5061726;28;20048;-58
2022/08/25 10:46:18;;;;;;;4.43;3.90;;;;;;;;;;5074626;28;20031;-58
2022/08/25 10:48:43;;;;;;;4.25;3.50;;;;;;;;;;5074489;28;20066;-58
2022/08/25 10:51:27;;;;;;;6.70;3.78;;;;;;;;;;5070002;28;20033;-58
2022/08/25 10:53:58;;;;;;;4.95;4.10;;;;;;;;;;5064729;28;20021;-58
2022/08/25 10:56:30;;;;;;;5.70;3.90;;;;;;;;;;5074253;28;20025;-57
2022/08/25 10:59:17;;;;;;;4.57;3.97;;;;;;;;;;5070331;28;20433;-57
2022/08/25 11:01:51;;;;;;;8.20;3.83;;;;;;;;;;5053401;28;20032;-58
2022/08/25 11:04:28;;;;;;;4.82;3.80;;;;;;;;;;5067961;28;20034;-58
2022/08/25 11:07:32;;;;;;;7.80;4.00;;;;;;;;;;5058749;28;20112;-57
2022/08/25 11:10:08;;;;;;;5.05;3.90;;;;;;;;;;5079153;28;20047;-58
2022/08/25 11:12:54;;;;;;;4.05;3.65;;;;;;;;;;5056861;28;20017;-57
2022/08/25 11:15:32;;;;;;;3.83;3.53;;;;;;;;;;5074334;28;20115;-58
2022/08/25 11:18:05;;;;;;;5.35;3.90;;;;;;;;;;5059232;28;20063;-58
2022/08/25 11:20:51;;;;;;;8.25;3.83;;;;;;;;;;5054073;28;20324;-58
2022/08/25 11:23:34;;;;;;;5.78;4.15;;;;;;;;;;5052904;28;20037;-58
2022/08/25 11:26:07;;;;;;;5.43;4.38;;;;;;;;;;5053640;28;20549;-58
2022/08/25 11:28:51;;;;;;;4.53;3.85;;;;;;;;;;5053343;28;20108;-58
2022/08/25 11:31:18;;;;;;;4.20;3.80;;;;;;;;;;5053062;28;20033;-58
2022/08/25 11:33:44;;;;;;;5.10;3.60;;;;;;;;;;5053845;28;20108;-58
2022/08/25 11:36:27;;;;;;;4.80;3.95;;;;;;;;;;5072398;28;20108;-58
2022/08/25 11:39:32;;;;;;;6.45;4.28;;;;;;;;;;5064576;28;20596;-58
2022/08/25 11:42:22;;;;;;;6.05;3.92;;;;;;;;;;5054217;28;20025;-58
2022/08/25 11:45:29;;;;;;;5.88;3.85;;;;;;;;;;5071614;28;20025;-58
2022/08/25 11:48:09;;;;;;;7.97;4.03;;;;;;;;;;5070984;28;20068;-58
2022/08/25 11:51:06;;;;;;;4.90;3.70;;;;;;;;;;5053070;28;20025;-58
2022/08/25 11:53:42;;;;;;;6.15;4.10;;;;;;;;;;5051877;28;20103;-58
2022/08/25 11:56:11;;;;;;;5.63;4.50;;;;;;;;;;5053642;28;20033;-58
2022/08/25 11:58:47;;;;;;;4.60;4.20;;;;;;;;;;5061712;28;20115;-58
2022/08/25 12:01:34;;;;;;;5.00;3.97;;;;;;;;;;5072731;28;20077;-58
2022/08/25 12:04:13;;;;;;;6.15;4.00;;;;;;;;;;5057842;28;20032;-58
2022/08/25 12:07:04;;;;;;;6.82;3.65;;;;;;;;;;5072812;28;20120;-58
2022/08/25 12:09:30;;;;;;;4.47;3.78;;;;;;;;;;5054662;28;20021;-58
2022/08/25 12:11:57;;;;;;;4.50;4.10;;;;;;;;;;5052199;28;20406;-58
2022/08/25 12:14:23;;;;;;;4.80;4.13;;;;;;;;;;5062027;28;20045;-58
2022/08/25 12:16:55;;;;;;;7.38;4.25;;;;;;;;;;5072792;28;20024;-58
2022/08/25 12:19:35;;;;;;;3.90;3.60;;;;;;;;;;5070891;28;20024;-58
2022/08/25 12:22:01;;;;;;;8.68;4.13;;;;;;;;;;5052012;28;20039;-58
2022/08/25 12:24:41;;;;;;;6.97;3.90;;;;;;;;;;5072290;28;20024;-58
2022/08/25 12:27:36;;;;;;;8.80;4.45;;;;;;;;;;5054657;28;20035;-58
2022/08/25 12:30:26;;;;;;;8.32;4.15;;;;;;;;;;5072030;28;20024;-58
2022/08/25 12:33:11;;;;;;;6.28;3.80;;;;;;;;;;5055614;28;20394;-58
2022/08/25 12:36:00;;;;;;;5.20;4.13;;;;;;;;;;5052498;28;20039;-58
2022/08/25 12:38:42;;;;;;;7.18;4.32;;;;;;;;;;5051034;28;20544;-58
2022/08/25 12:41:14;;;;;;;5.47;4.32;;;;;;;;;;5052387;28;20112;-58
2022/08/25 12:43:43;;;;;;;4.40;4.00;;;;;;;;;;5056978;28;20409;-58
2022/08/25 12:46:24;;;;;;;6.03;4.03;;;;;;;;;;5069378;28;20020;-58
2022/08/25 12:49:28;;;;;;;5.88;4.03;;;;;;;;;;5052209;28;20140;-58
2022/08/25 12:52:01;;;;;;;5.70;4.13;;;;;;;;;;5051297;28;20408;-58
2022/08/25 12:54:40;;;;;;;5.07;4.18;;;;;;;;;;5067381;28;20113;-58
2022/08/25 12:57:32;;;;;;;4.30;3.90;;;;;;;;;;5067148;28;20059;-58
2022/08/25 13:00:00;;;;;;;6.05;4.05;;;;;;;;;;5065428;28;20032;-58
2022/08/25 13:02:47;;;;;;;6.93;4.38;;;;;;;;;;5069163;28;20070;-58
2022/08/25 13:05:40;;;;;;;5.63;4.00;;;;;;;;;;5072389;28;20032;-58
2022/08/25 13:08:18;;;;;;;6.60;4.13;;;;;;;;;;5057031;28;20517;-58
2022/08/25 13:10:46;;;;;;;4.65;3.70;;;;;;;;;;5051968;28;20051;-58
2022/08/25 13:13:15;;;;;;;5.45;3.80;;;;;;;;;;5057282;28;20024;-58
2022/08/25 13:15:44;;;;;;;4.63;4.00;;;;;;;;;;5071700;28;20047;-58
2022/08/25 13:18:24;;;;;;;4.20;3.80;;;;;;;;;;5055023;28;20074;-58
2022/08/25 13:21:18;;;;;;;5.20;4.70;;;;;;;;;;5051886;28;20052;-58
2022/08/25 13:23:50;;;;;;;7.28;3.72;;;;;;;;;;5065112;28;20025;-58
2022/08/25 13:26:31;;;;;;;5.57;3.90;;;;;;;;;;5053097;28;20079;-58
2022/08/25 13:29:07;;;;;;;4.90;3.90;;;;;;;;;;5059286;28;20432;-58
2022/08/25 13:31:37;;;;;;;6.72;3.78;;;;;;;;;;5070878;28;20040;-58
2022/08/25 13:34:08;;;;;;;6.22;3.63;;;;;;;;;;5054841;28;20024;-58
2022/08/25 13:39:28;;;;;;;4.40;4.00;;;;;;;;;;5051465;28;20033;-58
2022/08/25 13:41:56;;;;;;;5.65;3.78;;;;;;;;;;5068252;28;20401;-58
2022/08/25 13:44:24;;;;;;;5.32;3.55;;;;;;;;;;5070797;28;20028;-58
2022/08/25 13:47:33;;;;;;;6.85;3.78;;;;;;;;;;5071692;28;20030;-58
2022/08/25 13:50:27;;;;;;;4.85;3.40;;;;;;;;;;5055240;28;20033;-58
2022/08/25 13:52:59;;;;;;;4.13;3.72;;;;;;;;;;5064787;28;20158;-58
2022/08/25 13:55:38;;;;;;;6.72;4.18;;;;;;;;;;5071368;28;20039;-58
2022/08/25 13:58:10;;;;;;;5.00;3.88;;;;;;;;;;5050690;28;20526;-58
2022/08/25 14:00:44;;;;;;;5.95;3.92;;;;;;;;;;5051282;28;20029;-58
2022/08/25 14:03:30;;;;;;;6.88;3.70;;;;;;;;;;5056582;28;20035;-58
2022/08/25 14:06:04;;;;;;;4.30;3.90;;;;;;;;;;5071259;28;20025;-58
2022/08/25 14:08:34;;;;;;;6.05;4.25;;;;;;;;;;5061161;28;20021;-58
2022/08/25 14:11:26;;;;;;;5.07;4.22;;;;;;;;;;5051144;28;20114;-58
2022/08/25 14:13:59;;;;;;;4.30;3.38;;;;;;;;;;5060774;28;20136;-58
2022/08/25 14:16:24;;;;;;;5.63;4.25;;;;;;;;;;5055351;28;20513;-58
2022/08/25 14:18:53;;;;;;;5.90;4.68;;;;;;;;;;5054956;28;20060;-58
2022/08/25 14:21:23;;;;;;;4.55;4.15;;;;;;;;;;5056373;28;20492;-58
2022/08/25 14:23:49;;;;;;;5.35;4.38;;;;;;;;;;5068199;28;20028;-58
2022/08/25 14:26:14;;;;;;;7.32;4.28;;;;;;;;;;5054797;28;20405;-58
2022/08/25 14:28:39;;;;;;;7.05;5.20;;;;;;;;;;5068756;28;20020;-58
2022/08/25 14:31:12;;;;;;;5.40;4.07;;;;;;;;;;5056902;28;20110;-58
2022/08/25 14:34:03;;;;;;;4.75;3.80;;;;;;;;;;5060410;28;20048;-58
2022/08/25 14:36:30;;;;;;;5.28;4.13;;;;;;;;;;5062664;28;20040;-58
2022/08/25 14:38:56;;;;;;;5.97;4.60;;;;;;;;;;5054529;28;20037;-58
2022/08/25 14:41:24;;;;;;;6.63;6.03;;;;;;;;;;5054159;28;20021;-58
2022/08/25 14:43:49;;;;;;;4.38;4.00;;;;;;;;;;5061141;28;20422;-58
2022/08/25 14:46:26;;;;;;;5.60;4.05;;;;;;;;;;5074370;28;20082;-58
2022/08/25 14:48:58;;;;;;;5.07;4.50;;;;;;;;;;5055649;28;20029;-58
2022/08/25 14:51:25;;;;;;;7.18;4.13;;;;;;;;;;5053435;28;20487;-58
2022/08/25 14:53:53;;;;;;;6.35;4.40;;;;;;;;;;5061264;28;20478;-58
2022/08/25 14:56:19;;;;;;;5.90;4.18;;;;;;;;;;5054443;28;20035;-58
2022/08/25 14:58:44;;;;;;;5.57;4.32;;;;;;;;;;5070006;28;20028;-58
2022/08/25 15:01:12;;;;;;;6.53;5.18;;;;;;;;;;5054106;28;20032;-58
2022/08/25 15:03:41;;;;;;;7.82;4.45;;;;;;;;;;5053465;28;20384;-58
2022/08/25 15:06:09;;;;;;;8.32;4.80;;;;;;;;;;5054165;28;20075;-58
2022/08/25 15:11:19;;;;;;;6.47;5.05;;;;;;;;;;5064239;28;20094;-58
2022/08/25 15:13:44;;;;;;;5.10;4.60;;;;;;;;;;5053926;28;20033;-58
2022/08/25 15:16:14;;;;;;;7.38;5.30;;;;;;;;;;5070431;28;20047;-58
2022/08/25 15:18:41;;;;;;;5.57;5.03;;;;;;;;;;5074027;28;20107;-58